createdAt,value
2022-10-19T00:00:21.125Z,13.49
2022-10-19T00:01:44.429Z,13.46
2022-10-19T00:02:47.717Z,13.47
2022-10-19T00:03:54.666Z,13.48
2022-10-19T00:04:59.083Z,13.48
2022-10-19T00:06:19.005Z,13.47
2022-10-19T00:07:22.460Z,13.43
2022-10-19T00:08:26.149Z,13.42
2022-10-19T00:09:29.788Z,13.43
2022-10-19T00:10:33.551Z,13.40
2022-10-19T00:11:40.174Z,13.39
2022-10-19T00:12:44.680Z,13.41
2022-10-19T00:13:48.051Z,13.42
2022-10-19T00:14:56.964Z,13.37
2022-10-19T00:16:00.212Z,13.41
2022-10-19T00:17:03.456Z,13.38
2022-10-19T00:18:08.065Z,13.39
2022-10-19T00:19:17.599Z,13.38
2022-10-19T00:20:21.063Z,13.38
2022-10-19T00:21:24.227Z,13.39
2022-10-19T00:22:27.509Z,13.39
2022-10-19T00:23:30.850Z,13.39
2022-10-19T00:24:35.959Z,13.39
2022-10-19T00:25:39.272Z,13.41
2022-10-19T00:26:43.006Z,13.37
2022-10-19T00:27:46.723Z,13.45
2022-10-19T00:28:50.381Z,13.46
2022-10-19T00:29:53.727Z,13.47
2022-10-19T00:30:57.677Z,13.48
2022-10-19T00:32:00.843Z,13.51
2022-10-19T00:33:05.636Z,13.51
2022-10-19T00:34:10.155Z,13.47
2022-10-19T00:35:13.359Z,13.52
2022-10-19T00:36:30.176Z,13.54
2022-10-19T00:37:33.301Z,13.55
2022-10-19T00:38:36.915Z,13.57
2022-10-19T00:39:42.458Z,13.58
2022-10-19T00:40:49.645Z,13.57
2022-10-19T00:41:52.976Z,13.51
2022-10-19T00:42:59.208Z,13.48
2022-10-19T00:44:07.273Z,13.46
2022-10-19T00:45:16.591Z,13.43
2022-10-19T00:46:20.762Z,13.41
2022-10-19T00:47:24.988Z,13.41
2022-10-19T00:48:32.122Z,13.41
2022-10-19T00:49:42.683Z,13.42
2022-10-19T00:50:48.570Z,13.43
2022-10-19T00:51:56.069Z,13.43
2022-10-19T00:52:59.147Z,13.44
2022-10-19T00:54:05.560Z,13.44
2022-10-19T00:55:10.451Z,13.46
2022-10-19T00:56:20.510Z,13.47
2022-10-19T00:57:27.063Z,13.48
2022-10-19T00:58:30.526Z,13.49
2022-10-19T00:59:34.744Z,13.50
2022-10-19T01:00:37.969Z,13.51
2022-10-19T01:01:42.585Z,13.51
2022-10-19T01:02:46.540Z,13.51
2022-10-19T01:03:50.257Z,13.52
2022-10-19T01:04:53.982Z,13.51
2022-10-19T01:05:57.695Z,13.50
2022-10-19T01:07:02.436Z,13.50
2022-10-19T01:08:08.854Z,13.49
2022-10-19T01:09:12.035Z,13.47
2022-10-19T01:10:15.303Z,13.49
2022-10-19T01:11:18.484Z,13.46
2022-10-19T01:12:21.816Z,13.43
2022-10-19T01:13:33.753Z,13.38
2022-10-19T01:14:54.769Z,13.32
2022-10-19T01:16:15.192Z,13.29
2022-10-19T01:17:53.943Z,13.27
2022-10-19T01:19:15.309Z,13.26
2022-10-19T01:20:43.066Z,13.26
2022-10-19T01:21:51.007Z,13.26
2022-10-19T01:22:59.805Z,13.27
2022-10-19T01:24:40.577Z,13.28
2022-10-19T01:25:46.724Z,13.28
2022-10-19T01:27:04.791Z,13.28
2022-10-19T01:28:32.973Z,13.29
2022-10-19T01:30:02.525Z,13.28
2022-10-19T01:31:28.778Z,13.28
2022-10-19T01:32:55.100Z,13.25
2022-10-19T01:34:11.022Z,13.27
2022-10-19T01:35:36.225Z,13.28
2022-10-19T01:36:49.680Z,13.28
2022-10-19T01:38:08.847Z,13.25
2022-10-19T01:39:18.478Z,13.23
2022-10-19T01:40:40.391Z,13.20
2022-10-19T01:41:50.488Z,13.17
2022-10-19T01:42:58.773Z,13.14
2022-10-19T01:44:16.418Z,13.16
2022-10-19T01:45:32.412Z,13.10
2022-10-19T01:46:41.484Z,13.10
2022-10-19T01:47:56.230Z,13.12
2022-10-19T01:49:26.940Z,13.11
2022-10-19T01:50:37.010Z,13.10
2022-10-19T01:51:46.167Z,13.11
2022-10-19T01:52:55.431Z,13.13
2022-10-19T01:54:04.170Z,13.16
2022-10-19T01:55:10.329Z,13.17
2022-10-19T01:56:16.589Z,13.18
2022-10-19T01:57:32.471Z,13.20
2022-10-19T01:58:37.993Z,13.20
2022-10-19T01:59:42.445Z,13.22
2022-10-19T02:00:48.857Z,13.23
2022-10-19T02:01:53.962Z,13.25
2022-10-19T02:02:59.580Z,13.28
2022-10-19T02:04:04.825Z,13.29
2022-10-19T02:05:10.066Z,13.31
2022-10-19T02:06:14.723Z,13.33
2022-10-19T02:07:22.610Z,13.33
2022-10-19T02:08:37.135Z,13.32
2022-10-19T02:09:40.275Z,13.30
2022-10-19T02:10:46.674Z,13.30
2022-10-19T02:11:57.048Z,13.28
2022-10-19T02:13:02.925Z,13.25
2022-10-19T02:14:13.560Z,13.26
2022-10-19T02:15:22.632Z,13.24
2022-10-19T02:16:32.215Z,13.23
2022-10-19T02:17:40.775Z,13.23
2022-10-19T02:18:49.650Z,13.24
2022-10-19T02:19:54.322Z,13.20
2022-10-19T02:20:58.542Z,13.19
2022-10-19T02:22:02.032Z,13.17
2022-10-19T02:23:06.549Z,13.14
2022-10-19T02:24:09.895Z,13.12
2022-10-19T02:25:13.727Z,13.12
2022-10-19T02:26:16.996Z,13.12
2022-10-19T02:27:20.444Z,13.13
2022-10-19T02:29:29.390Z,13.13
2022-10-19T02:30:32.774Z,13.15
2022-10-19T02:31:36.490Z,13.16
2022-10-19T02:32:40.077Z,13.18
2022-10-19T02:33:43.516Z,13.19
2022-10-19T02:34:46.760Z,13.19
2022-10-19T02:35:52.461Z,13.19
2022-10-19T02:36:56.064Z,13.19
2022-10-19T02:38:01.556Z,13.21
2022-10-19T02:39:06.615Z,13.21
2022-10-19T02:40:10.670Z,13.20
2022-10-19T02:41:18.771Z,13.22
2022-10-19T02:42:34.947Z,13.23
2022-10-19T02:43:41.920Z,13.25
2022-10-19T02:45:20.465Z,13.25
2022-10-19T02:46:35.373Z,13.24
2022-10-19T02:47:52.897Z,13.25
2022-10-19T02:48:58.709Z,13.22
2022-10-19T02:50:06.038Z,13.25
2022-10-19T02:51:31.587Z,13.27
2022-10-19T02:52:37.630Z,13.27
2022-10-19T02:53:40.842Z,13.26
2022-10-19T02:54:45.116Z,13.23
2022-10-19T02:55:49.868Z,13.21
2022-10-19T02:56:53.020Z,13.19
2022-10-19T02:57:57.407Z,13.18
2022-10-19T02:59:01.101Z,13.20
2022-10-19T03:00:07.617Z,13.19
2022-10-19T03:01:11.037Z,13.13
2022-10-19T03:02:19.298Z,13.11
2022-10-19T03:03:22.545Z,13.08
2022-10-19T03:04:29.614Z,13.04
2022-10-19T03:05:32.868Z,13.04
2022-10-19T03:06:36.099Z,13.04
2022-10-19T03:07:39.254Z,13.07
2022-10-19T03:08:42.385Z,13.09
2022-10-19T03:09:46.394Z,13.11
2022-10-19T03:10:49.576Z,13.13
2022-10-19T03:11:52.848Z,13.16
2022-10-19T03:12:58.781Z,13.18
2022-10-19T03:14:02.135Z,13.19
2022-10-19T03:15:05.656Z,13.21
2022-10-19T03:16:11.790Z,13.22
2022-10-19T03:17:15.025Z,13.23
2022-10-19T03:18:18.311Z,13.26
2022-10-19T03:19:21.907Z,13.26
2022-10-19T03:20:25.060Z,13.26
2022-10-19T03:21:28.400Z,13.28
2022-10-19T03:22:33.525Z,13.28
2022-10-19T03:23:37.357Z,13.30
2022-10-19T03:24:40.748Z,13.28
2022-10-19T03:25:43.910Z,13.32
2022-10-19T03:26:47.324Z,13.33
2022-10-19T03:27:52.350Z,13.34
2022-10-19T03:28:55.491Z,13.35
2022-10-19T03:30:00.706Z,13.35
2022-10-19T03:31:04.095Z,13.35
2022-10-19T03:32:07.494Z,13.35
2022-10-19T03:33:10.655Z,13.35
2022-10-19T03:34:13.896Z,13.34
2022-10-19T03:35:17.334Z,13.34
2022-10-19T03:36:29.964Z,13.34
2022-10-19T03:37:33.310Z,13.34
2022-10-19T03:38:36.696Z,13.35
2022-10-19T03:39:39.738Z,13.34
2022-10-19T03:40:43.131Z,13.35
2022-10-19T03:41:46.739Z,13.36
2022-10-19T03:42:49.876Z,13.37
2022-10-19T03:43:53.101Z,13.38
2022-10-19T03:44:56.520Z,13.38
2022-10-19T03:46:00.086Z,13.37
2022-10-19T03:47:03.301Z,13.38
2022-10-19T03:48:06.814Z,13.38
2022-10-19T03:49:10.560Z,13.39
2022-10-19T03:50:17.004Z,13.33
2022-10-19T03:51:26.003Z,13.39
2022-10-19T03:52:29.243Z,13.39
2022-10-19T03:53:33.396Z,13.39
2022-10-19T03:54:36.592Z,13.38
2022-10-19T03:55:39.876Z,13.38
2022-10-19T03:56:43.882Z,13.38
2022-10-19T03:57:47.080Z,13.37
2022-10-19T03:58:51.356Z,13.37
2022-10-19T03:59:54.519Z,13.37
2022-10-19T04:00:57.872Z,13.36
2022-10-19T04:02:01.297Z,13.34
2022-10-19T04:03:04.545Z,13.32
2022-10-19T04:04:19.948Z,13.35
2022-10-19T04:05:23.249Z,13.34
2022-10-19T04:06:34.319Z,13.29
2022-10-19T04:07:37.652Z,13.21
2022-10-19T04:08:41.316Z,13.19
2022-10-19T04:09:44.599Z,13.15
2022-10-19T04:10:47.901Z,13.13
2022-10-19T04:11:51.596Z,13.11
2022-10-19T04:12:54.823Z,13.09
2022-10-19T04:13:59.950Z,13.06
2022-10-19T04:15:04.461Z,13.02
2022-10-19T04:16:08.326Z,13.02
2022-10-19T04:17:13.088Z,12.98
2022-10-19T04:18:16.154Z,12.95
2022-10-19T04:19:21.994Z,12.93
2022-10-19T04:20:25.351Z,12.88
2022-10-19T04:21:39.849Z,12.84
2022-10-19T04:22:43.097Z,12.78
2022-10-19T04:23:46.588Z,12.71
2022-10-19T04:24:49.807Z,12.66
2022-10-19T04:25:53.050Z,12.61
2022-10-19T04:26:59.800Z,12.55
2022-10-19T04:28:03.246Z,12.50
2022-10-19T04:29:07.021Z,12.45
2022-10-19T04:30:10.738Z,12.39
2022-10-19T04:31:14.046Z,12.37
2022-10-19T04:32:17.230Z,12.31
2022-10-19T04:33:20.529Z,12.27
2022-10-19T04:34:24.499Z,12.23
2022-10-19T04:35:28.597Z,12.19
2022-10-19T04:36:31.996Z,12.15
2022-10-19T04:37:35.677Z,12.10
2022-10-19T04:38:39.302Z,12.07
2022-10-19T04:39:43.607Z,12.03
2022-10-19T04:40:46.996Z,11.99
2022-10-19T04:41:50.307Z,11.95
2022-10-19T04:42:53.560Z,11.90
2022-10-19T04:43:59.449Z,11.85
2022-10-19T04:45:03.040Z,11.80
2022-10-19T04:46:15.202Z,11.76
2022-10-19T04:47:19.200Z,11.72
2022-10-19T04:48:22.959Z,11.67
2022-10-19T04:49:26.410Z,11.63
2022-10-19T04:50:29.955Z,11.59
2022-10-19T04:51:33.395Z,11.53
2022-10-19T04:52:36.551Z,11.50
2022-10-19T04:53:41.952Z,11.46
2022-10-19T04:54:46.202Z,11.42
2022-10-19T04:55:49.479Z,11.40
2022-10-19T04:56:54.051Z,11.37
2022-10-19T04:57:59.713Z,11.33
2022-10-19T04:59:03.005Z,11.30
2022-10-19T05:00:06.930Z,11.29
2022-10-19T05:01:12.734Z,11.27
2022-10-19T05:02:16.908Z,11.25
2022-10-19T05:03:20.172Z,11.22
2022-10-19T05:04:23.506Z,11.28
2022-10-19T05:05:27.218Z,11.29
2022-10-19T05:06:31.906Z,11.33
2022-10-19T05:07:35.493Z,11.36
2022-10-19T05:08:39.909Z,11.38
2022-10-19T05:09:45.464Z,11.39
2022-10-19T05:10:48.860Z,11.41
2022-10-19T05:11:52.782Z,11.44
2022-10-19T05:12:56.143Z,11.46
2022-10-19T05:13:59.340Z,11.49
2022-10-19T05:15:03.405Z,11.51
2022-10-19T05:16:08.745Z,11.56
2022-10-19T05:17:12.918Z,11.59
2022-10-19T05:18:16.090Z,11.62
2022-10-19T05:19:19.283Z,11.64
2022-10-19T05:20:23.191Z,11.68
2022-10-19T05:21:29.147Z,11.71
2022-10-19T05:22:32.395Z,11.73
2022-10-19T05:23:35.683Z,11.76
2022-10-19T05:24:40.152Z,11.78
2022-10-19T05:25:43.352Z,11.80
2022-10-19T05:26:46.743Z,11.83
2022-10-19T05:27:53.832Z,11.83
2022-10-19T05:29:02.121Z,11.85
2022-10-19T05:30:09.268Z,11.87
2022-10-19T05:31:18.085Z,11.87
2022-10-19T05:32:22.330Z,11.87
2022-10-19T05:33:25.585Z,11.89
2022-10-19T05:34:28.829Z,11.91
2022-10-19T05:35:32.850Z,11.93
2022-10-19T05:36:38.831Z,11.95
2022-10-19T05:37:42.095Z,11.96
2022-10-19T05:38:47.308Z,11.98
2022-10-19T05:39:50.608Z,11.98
2022-10-19T05:40:53.881Z,12.01
2022-10-19T05:41:57.147Z,12.02
2022-10-19T05:43:00.609Z,12.03
2022-10-19T05:44:05.601Z,12.05
2022-10-19T05:45:12.402Z,12.07
2022-10-19T05:46:19.635Z,12.09
2022-10-19T05:47:26.169Z,12.10
2022-10-19T05:48:34.111Z,12.13
2022-10-19T05:49:37.236Z,12.14
2022-10-19T05:50:40.425Z,12.14
2022-10-19T05:51:45.076Z,12.14
2022-10-19T05:52:48.303Z,12.15
2022-10-19T05:53:53.827Z,12.15
2022-10-19T05:54:58.525Z,12.14
2022-10-19T05:56:02.027Z,12.15
2022-10-19T05:57:05.210Z,12.16
2022-10-19T05:58:08.352Z,12.17
2022-10-19T05:59:16.396Z,12.17
2022-10-19T06:00:19.741Z,12.18
2022-10-19T06:01:23.487Z,12.19
2022-10-19T06:02:26.652Z,12.21
2022-10-19T06:03:30.291Z,12.23
2022-10-19T06:04:33.978Z,12.26
2022-10-19T06:05:37.624Z,12.29
2022-10-19T06:06:42.254Z,12.30
2022-10-19T06:07:45.505Z,12.31
2022-10-19T06:08:49.586Z,12.34
2022-10-19T06:09:52.766Z,12.33
2022-10-19T06:11:12.222Z,12.35
2022-10-19T06:12:16.355Z,12.36
2022-10-19T06:13:20.706Z,12.37
2022-10-19T06:14:24.369Z,12.38
2022-10-19T06:15:27.517Z,12.40
2022-10-19T06:16:31.980Z,12.42
2022-10-19T06:17:35.476Z,12.44
2022-10-19T06:18:39.582Z,12.47
2022-10-19T06:19:42.826Z,12.48
2022-10-19T06:20:46.331Z,12.49
2022-10-19T06:21:49.638Z,12.50
2022-10-19T06:22:53.324Z,12.48
2022-10-19T06:24:05.119Z,12.48
2022-10-19T06:25:09.131Z,12.47
2022-10-19T06:26:14.821Z,12.47
2022-10-19T06:27:20.150Z,12.47
2022-10-19T06:28:23.469Z,12.47
2022-10-19T06:29:26.666Z,12.47
2022-10-19T06:30:30.102Z,12.49
2022-10-19T06:31:35.745Z,12.50
2022-10-19T06:32:38.968Z,12.51
2022-10-19T06:33:44.930Z,12.53
2022-10-19T06:34:50.853Z,12.55
2022-10-19T06:35:56.504Z,12.58
2022-10-19T06:36:59.666Z,12.59
2022-10-19T06:38:02.915Z,12.64
2022-10-19T06:39:06.337Z,12.69
2022-10-19T06:40:10.715Z,12.76
2022-10-19T06:41:14.066Z,12.82
2022-10-19T06:42:17.220Z,12.88
2022-10-19T06:43:20.411Z,12.94
2022-10-19T06:44:23.985Z,13.00
2022-10-19T06:45:27.202Z,13.05
2022-10-19T06:46:30.449Z,13.10
2022-10-19T06:47:35.023Z,13.16
2022-10-19T06:48:38.945Z,13.21
2022-10-19T06:49:42.339Z,13.26
2022-10-19T06:50:45.848Z,13.29
2022-10-19T06:51:49.025Z,13.33
2022-10-19T06:52:52.349Z,13.35
2022-10-19T06:53:57.010Z,13.38
2022-10-19T06:55:02.370Z,13.40
2022-10-19T06:56:06.717Z,13.42
2022-10-19T06:57:12.282Z,13.44
2022-10-19T06:58:15.408Z,13.46
2022-10-19T06:59:18.750Z,13.49
2022-10-19T07:00:21.891Z,13.53
2022-10-19T07:01:25.985Z,13.57
2022-10-19T07:02:29.351Z,13.61
2022-10-19T07:03:32.542Z,13.65
2022-10-19T07:04:35.676Z,13.71
2022-10-19T07:05:38.949Z,13.76
2022-10-19T07:06:42.089Z,13.82
2022-10-19T07:07:45.874Z,13.87
2022-10-19T07:08:49.678Z,13.92
2022-10-19T07:09:53.674Z,13.96
2022-10-19T07:11:00.659Z,14.00
2022-10-19T07:12:04.108Z,14.05
2022-10-19T07:13:07.402Z,14.07
2022-10-19T07:14:10.549Z,14.11
2022-10-19T07:15:13.720Z,14.14
2022-10-19T07:16:20.953Z,14.18
2022-10-19T07:17:25.117Z,14.22
2022-10-19T07:18:28.592Z,14.31
2022-10-19T07:19:32.517Z,14.43
2022-10-19T07:20:35.971Z,14.68
2022-10-19T07:21:41.803Z,14.82
2022-10-19T07:22:45.124Z,14.94
2022-10-19T07:23:49.051Z,15.03
2022-10-19T07:24:53.584Z,15.10
2022-10-19T07:26:01.838Z,15.17
2022-10-19T07:27:04.996Z,15.31
2022-10-19T07:28:08.378Z,15.53
2022-10-19T07:29:17.785Z,15.66
2022-10-19T07:30:21.370Z,15.89
2022-10-19T07:31:26.051Z,16.21
2022-10-19T07:32:29.495Z,16.26
2022-10-19T07:33:32.711Z,16.29
2022-10-19T07:34:35.925Z,16.28
2022-10-19T07:35:39.215Z,16.29
2022-10-19T07:36:47.315Z,16.30
2022-10-19T07:37:50.415Z,16.26
2022-10-19T07:38:53.862Z,16.29
2022-10-19T07:39:57.194Z,16.28
2022-10-19T07:41:05.557Z,16.26
2022-10-19T07:42:08.788Z,16.25
2022-10-19T07:43:12.129Z,16.24
2022-10-19T07:44:16.062Z,16.22
2022-10-19T07:45:19.409Z,16.24
2022-10-19T07:46:26.337Z,16.31
2022-10-19T07:47:29.561Z,16.31
2022-10-19T07:48:33.870Z,16.31
2022-10-19T07:49:37.470Z,16.30
2022-10-19T07:50:41.978Z,16.30
2022-10-19T07:51:46.528Z,16.29
2022-10-19T07:52:51.332Z,16.30
2022-10-19T07:53:54.609Z,16.30
2022-10-19T07:54:57.788Z,16.32
2022-10-19T07:56:08.903Z,16.34
2022-10-19T07:57:12.614Z,16.36
2022-10-19T07:58:15.759Z,16.36
2022-10-19T07:59:19.056Z,16.45
2022-10-19T08:00:22.526Z,16.53
2022-10-19T08:01:35.117Z,16.56
2022-10-19T08:02:54.765Z,16.58
2022-10-19T08:05:25.692Z,16.84
2022-10-19T08:06:28.996Z,16.97
2022-10-19T08:07:34.017Z,17.28
2022-10-19T08:08:38.132Z,17.68
2022-10-19T08:09:52.837Z,17.99
2022-10-19T08:10:57.821Z,18.11
2022-10-19T08:12:01.150Z,18.17
2022-10-19T08:13:04.371Z,18.09
2022-10-19T08:14:07.684Z,18.08
2022-10-19T08:15:10.986Z,18.10
2022-10-19T08:16:23.688Z,18.11
2022-10-19T08:17:27.215Z,18.14
2022-10-19T08:19:43.547Z,18.16
2022-10-19T08:20:46.971Z,18.13
2022-10-19T08:21:51.137Z,18.20
2022-10-19T08:22:57.997Z,18.24
2022-10-19T08:24:02.579Z,18.24
2022-10-19T08:25:06.625Z,18.20
2022-10-19T08:26:09.782Z,18.15
2022-10-19T08:27:16.773Z,18.14
2022-10-19T08:28:19.873Z,18.13
2022-10-19T08:29:25.509Z,18.14
2022-10-19T08:30:31.152Z,18.08
2022-10-19T08:31:34.894Z,17.97
2022-10-19T08:32:38.075Z,17.88
2022-10-19T08:33:41.742Z,17.85
2022-10-19T08:34:45.408Z,17.85
2022-10-19T08:35:48.704Z,17.98
2022-10-19T08:36:52.013Z,18.08
2022-10-19T08:37:57.267Z,18.16
2022-10-19T08:39:04.053Z,18.19
2022-10-19T08:40:18.772Z,18.24
2022-10-19T08:41:37.549Z,18.42
2022-10-19T08:43:19.720Z,18.73
2022-10-19T08:45:10.902Z,18.89
2022-10-19T08:46:16.952Z,18.94
2022-10-19T08:47:58.050Z,19.04
2022-10-19T08:49:03.277Z,19.15
2022-10-19T08:50:30.222Z,19.20
2022-10-19T08:51:37.840Z,19.31
2022-10-19T08:52:43.424Z,19.37
2022-10-19T08:53:54.854Z,19.36
2022-10-19T08:55:03.000Z,19.48
2022-10-19T08:56:06.400Z,19.50
2022-10-19T08:57:12.549Z,19.62
2022-10-19T08:58:24.486Z,19.75
2022-10-19T08:59:57.516Z,19.91
2022-10-19T09:01:21.090Z,20.07
2022-10-19T09:02:36.668Z,20.12
2022-10-19T09:04:07.850Z,20.21
2022-10-19T09:05:32.895Z,20.25
2022-10-19T09:07:11.801Z,20.24
2022-10-19T09:08:17.862Z,20.20
2022-10-19T09:09:21.420Z,20.20
2022-10-19T09:10:35.107Z,20.24
2022-10-19T09:11:44.812Z,20.33
2022-10-19T09:12:58.566Z,20.45
2022-10-19T09:14:31.476Z,20.67
2022-10-19T09:15:43.414Z,21.07
2022-10-19T09:16:46.824Z,21.35
2022-10-19T09:17:49.999Z,21.47
2022-10-19T09:18:56.427Z,21.56
2022-10-19T09:20:15.300Z,21.78
2022-10-19T09:21:47.595Z,21.88
2022-10-19T09:23:20.897Z,21.89
2022-10-19T09:24:38.835Z,21.80
2022-10-19T09:25:42.224Z,21.64
2022-10-19T09:26:57.335Z,21.53
2022-10-19T09:28:36.439Z,21.41
2022-10-19T09:29:48.764Z,21.29
2022-10-19T09:30:54.132Z,21.23
2022-10-19T09:32:00.650Z,21.18
2022-10-19T09:33:04.350Z,21.10
2022-10-19T09:34:36.037Z,21.02
2022-10-19T09:35:43.704Z,20.85
2022-10-19T09:36:52.525Z,20.76
2022-10-19T09:37:56.833Z,20.57
2022-10-19T09:39:00.130Z,20.42
2022-10-19T09:40:04.075Z,20.36
2022-10-19T09:41:22.888Z,20.35
2022-10-19T09:42:33.795Z,20.15
2022-10-19T09:43:37.645Z,20.11
2022-10-19T09:44:41.180Z,20.35
2022-10-19T09:46:19.704Z,20.67
2022-10-19T09:47:33.006Z,21.08
2022-10-19T09:48:47.786Z,21.33
2022-10-19T09:49:50.926Z,21.70
2022-10-19T09:50:59.115Z,22.01
2022-10-19T09:52:02.169Z,22.14
2022-10-19T09:53:06.015Z,22.35
2022-10-19T09:54:23.935Z,22.64
2022-10-19T09:55:42.129Z,22.91
2022-10-19T09:56:54.003Z,22.98
2022-10-19T09:58:04.016Z,23.00
2022-10-19T09:59:23.291Z,22.84
2022-10-19T10:00:36.924Z,22.58
2022-10-19T10:01:43.512Z,22.59
2022-10-19T10:02:55.785Z,22.57
2022-10-19T10:04:09.781Z,22.55
2022-10-19T10:05:16.006Z,22.77
2022-10-19T10:06:22.860Z,23.00
2022-10-19T10:07:33.330Z,23.17
2022-10-19T10:08:39.959Z,22.98
2022-10-19T10:09:45.199Z,22.86
2022-10-19T10:11:09.067Z,22.74
2022-10-19T10:12:16.221Z,22.45
2022-10-19T10:13:24.082Z,22.27
2022-10-19T10:14:35.306Z,22.20
2022-10-19T10:15:45.260Z,21.80
2022-10-19T10:16:48.599Z,21.59
2022-10-19T10:17:52.731Z,21.45
2022-10-19T10:18:59.024Z,21.28
2022-10-19T10:20:10.777Z,21.10
2022-10-19T10:21:25.431Z,21.02
2022-10-19T10:22:33.734Z,21.01
2022-10-19T10:23:37.954Z,20.79
2022-10-19T10:24:53.000Z,20.82
2022-10-19T10:25:58.073Z,21.06
2022-10-19T10:27:04.940Z,21.20
2022-10-19T10:28:20.829Z,21.45
2022-10-19T10:29:27.284Z,21.70
2022-10-19T10:30:37.006Z,21.60
2022-10-19T10:31:42.601Z,21.48
2022-10-19T10:32:51.395Z,21.60
2022-10-19T10:34:12.263Z,21.52
2022-10-19T10:35:35.121Z,21.33
2022-10-19T10:36:38.352Z,21.27
2022-10-19T10:37:44.986Z,21.22
2022-10-19T10:38:53.202Z,21.13
2022-10-19T10:40:01.773Z,20.99
2022-10-19T10:41:23.632Z,20.84
2022-10-19T10:42:36.452Z,20.72
2022-10-19T10:44:09.794Z,20.66
2022-10-19T10:45:34.387Z,20.50
2022-10-19T10:46:50.570Z,20.48
2022-10-19T10:47:54.219Z,20.44
2022-10-19T10:49:00.775Z,20.41
2022-10-19T10:50:07.703Z,20.20
2022-10-19T10:51:40.707Z,20.15
2022-10-19T10:53:00.239Z,20.38
2022-10-19T10:54:19.966Z,20.46
2022-10-19T10:55:23.206Z,20.45
2022-10-19T10:56:29.572Z,20.44
2022-10-19T10:57:38.987Z,20.33
2022-10-19T10:58:48.190Z,20.22
2022-10-19T11:00:16.643Z,20.10
2022-10-19T11:01:23.745Z,19.99
2022-10-19T11:02:42.567Z,19.87
2022-10-19T11:03:53.361Z,19.80
2022-10-19T11:05:06.316Z,19.77
2022-10-19T11:06:10.245Z,19.83
2022-10-19T11:07:23.950Z,19.94
2022-10-19T11:08:29.928Z,20.04
2022-10-19T11:09:42.711Z,20.21
2022-10-19T11:10:51.984Z,20.42
2022-10-19T11:11:57.500Z,20.53
2022-10-19T11:13:16.368Z,20.60
2022-10-19T11:14:37.600Z,20.60
2022-10-19T11:15:52.593Z,20.90
2022-10-19T11:16:59.320Z,21.05
2022-10-19T11:18:14.289Z,21.14
2022-10-19T11:19:42.476Z,21.15
2022-10-19T11:20:55.653Z,21.01
2022-10-19T11:22:22.449Z,20.99
2022-10-19T11:23:55.225Z,20.95
2022-10-19T11:25:10.608Z,20.78
2022-10-19T11:26:22.462Z,20.74
2022-10-19T11:27:59.917Z,20.78
2022-10-19T11:29:09.084Z,21.08
2022-10-19T11:30:21.715Z,21.35
2022-10-19T11:31:33.660Z,21.69
2022-10-19T11:32:42.613Z,21.94
2022-10-19T11:34:23.759Z,22.02
2022-10-19T11:35:53.347Z,22.36
2022-10-19T11:36:59.207Z,22.57
2022-10-19T11:38:29.739Z,22.75
2022-10-19T11:39:51.254Z,22.62
2022-10-19T11:41:16.805Z,22.75
2022-10-19T11:42:50.266Z,22.94
2022-10-19T11:44:11.946Z,23.06
2022-10-19T11:45:32.584Z,23.21
2022-10-19T11:46:52.862Z,23.38
2022-10-19T11:48:09.587Z,23.65
2022-10-19T11:49:24.370Z,23.94
2022-10-19T11:50:54.095Z,24.17
2022-10-19T11:52:27.116Z,24.42
2022-10-19T11:54:00.963Z,24.61
2022-10-19T11:55:06.711Z,24.49
2022-10-19T11:56:44.720Z,24.30
2022-10-19T11:58:21.607Z,24.37
2022-10-19T11:59:57.599Z,24.36
2022-10-19T12:01:45.487Z,24.07
2022-10-19T12:03:25.932Z,23.92
2022-10-19T12:04:54.717Z,23.54
2022-10-19T12:06:14.585Z,23.18
2022-10-19T12:07:51.347Z,22.68
2022-10-19T12:09:54.081Z,22.34
2022-10-19T12:11:21.470Z,21.88
2022-10-19T12:12:24.547Z,21.55
2022-10-19T12:13:36.960Z,21.45
2022-10-19T12:14:44.089Z,21.22
2022-10-19T12:15:54.322Z,21.01
2022-10-19T12:17:05.810Z,20.99
2022-10-19T12:18:19.328Z,20.87
2022-10-19T12:19:29.505Z,20.73
2022-10-19T12:20:39.195Z,20.77
2022-10-19T12:21:43.725Z,20.89
2022-10-19T12:22:50.634Z,21.09
2022-10-19T12:23:57.214Z,21.31
2022-10-19T12:25:02.253Z,21.36
2022-10-19T12:26:14.764Z,21.51
2022-10-19T12:27:35.433Z,21.48
2022-10-19T12:28:43.709Z,21.45
2022-10-19T12:29:49.782Z,21.53
2022-10-19T12:30:53.921Z,21.72
2022-10-19T12:31:59.520Z,22.05
2022-10-19T12:33:23.168Z,22.43
2022-10-19T12:34:55.545Z,22.87
2022-10-19T12:36:09.542Z,22.90
2022-10-19T12:37:12.837Z,22.83
2022-10-19T12:38:19.363Z,22.80
2022-10-19T12:39:35.377Z,22.74
2022-10-19T12:40:51.801Z,22.80
2022-10-19T12:42:30.073Z,23.10
2022-10-19T12:43:43.808Z,23.39
2022-10-19T12:45:18.417Z,23.35
2022-10-19T12:46:36.142Z,23.31
2022-10-19T12:47:39.521Z,23.18
2022-10-19T12:48:42.786Z,23.06
2022-10-19T12:49:51.806Z,22.93
2022-10-19T12:50:54.924Z,22.85
2022-10-19T12:52:00.698Z,22.75
2022-10-19T12:53:03.882Z,22.69
2022-10-19T12:54:12.067Z,22.62
2022-10-19T12:55:15.337Z,22.51
2022-10-19T12:56:27.367Z,22.38
2022-10-19T12:57:30.923Z,22.15
2022-10-19T12:58:53.101Z,21.90
2022-10-19T13:00:19.859Z,21.65
2022-10-19T13:01:35.585Z,21.39
2022-10-19T13:02:41.119Z,21.10
2022-10-19T13:03:48.938Z,20.98
2022-10-19T13:04:55.031Z,20.96
2022-10-19T13:06:01.490Z,21.01
2022-10-19T13:07:08.759Z,21.15
2022-10-19T13:08:27.756Z,21.38
2022-10-19T13:09:39.849Z,21.32
2022-10-19T13:11:04.597Z,21.18
2022-10-19T13:12:16.175Z,20.86
2022-10-19T13:13:54.188Z,20.72
2022-10-19T13:15:07.205Z,20.56
2022-10-19T13:16:33.760Z,20.44
2022-10-19T13:17:36.875Z,20.19
2022-10-19T13:19:14.066Z,20.15
2022-10-19T13:20:17.112Z,20.17
2022-10-19T13:22:02.398Z,20.13
2022-10-19T13:23:09.226Z,20.22
2022-10-19T13:24:27.008Z,20.46
2022-10-19T13:25:36.921Z,20.77
2022-10-19T13:26:40.216Z,21.08
2022-10-19T13:27:44.964Z,21.36
2022-10-19T13:28:57.581Z,21.64
2022-10-19T13:30:00.725Z,21.89
2022-10-19T13:31:09.417Z,22.04
2022-10-19T13:32:45.324Z,22.24
2022-10-19T13:33:50.307Z,22.42
2022-10-19T13:34:53.658Z,22.57
2022-10-19T13:35:59.828Z,22.78
2022-10-19T13:37:04.590Z,22.99
2022-10-19T13:38:20.962Z,23.10
2022-10-19T13:39:28.528Z,23.26
2022-10-19T13:40:32.865Z,23.36
2022-10-19T13:41:39.594Z,23.34
2022-10-19T13:42:43.061Z,23.39
2022-10-19T13:44:19.098Z,23.44
2022-10-19T13:45:25.461Z,23.36
2022-10-19T13:46:31.553Z,23.23
2022-10-19T13:47:47.750Z,22.93
2022-10-19T13:49:30.403Z,22.75
2022-10-19T13:51:02.628Z,22.50
2022-10-19T13:52:11.713Z,22.54
2022-10-19T13:53:29.913Z,22.66
2022-10-19T13:54:48.323Z,22.80
2022-10-19T13:56:02.029Z,22.95
2022-10-19T13:57:45.154Z,23.05
2022-10-19T13:59:18.147Z,22.86
2022-10-19T14:00:23.874Z,22.83
2022-10-19T14:01:38.196Z,22.78
2022-10-19T14:02:48.365Z,22.73
2022-10-19T14:04:29.221Z,22.52
2022-10-19T14:05:43.788Z,22.31
2022-10-19T14:07:02.131Z,22.25
2022-10-19T14:08:07.924Z,22.19
2022-10-19T14:09:33.591Z,22.21
2022-10-19T14:11:00.047Z,22.07
2022-10-19T14:12:15.559Z,21.95
2022-10-19T14:13:22.644Z,21.74
2022-10-19T14:14:25.784Z,21.60
2022-10-19T14:15:34.338Z,21.50
2022-10-19T14:17:03.197Z,21.42
2022-10-19T14:18:29.870Z,21.35
2022-10-19T14:19:43.642Z,21.15
2022-10-19T14:21:06.995Z,21.10
2022-10-19T14:22:40.962Z,21.09
2022-10-19T14:23:44.093Z,20.98
2022-10-19T14:24:47.294Z,20.91
2022-10-19T14:25:53.432Z,20.78
2022-10-19T14:26:57.716Z,20.54
2022-10-19T14:28:05.664Z,20.46
2022-10-19T14:29:13.114Z,20.50
2022-10-19T14:30:28.435Z,20.39
2022-10-19T14:31:36.535Z,20.34
2022-10-19T14:32:43.109Z,20.27
2022-10-19T14:33:50.390Z,20.10
2022-10-19T14:34:57.658Z,20.00
2022-10-19T14:36:02.066Z,20.03
2022-10-19T14:37:17.094Z,19.99
2022-10-19T14:38:35.715Z,19.77
2022-10-19T14:39:38.925Z,19.52
2022-10-19T14:40:42.472Z,19.56
2022-10-19T14:41:45.786Z,19.68
2022-10-19T14:42:50.250Z,19.62
2022-10-19T14:43:54.556Z,19.66
2022-10-19T14:45:01.751Z,19.58
2022-10-19T14:46:15.988Z,19.46
2022-10-19T14:47:27.290Z,19.33
2022-10-19T14:48:30.421Z,19.25
2022-10-19T14:49:33.637Z,19.25
2022-10-19T14:50:42.615Z,19.24
2022-10-19T14:51:50.880Z,19.21
2022-10-19T14:53:01.783Z,19.19
2022-10-19T14:54:13.508Z,19.07
2022-10-19T14:55:19.451Z,18.95
2022-10-19T14:56:36.343Z,18.82